EDVK/KSF METAR and TAF weather

Enter ICAO airport designator
Station Type Date Time Source
EDVK METAR 2018/07/21 11:20 UTC NOAA

EDVK 211120Z VRB03KT CAVOK 26/10 Q1011


Station Type Date Time Source
EDVK Decoded METAR 2018/07/21 11:20 UTC NOAA

Kassel / Calden, Germany (EDVK) 51-24N 009-23E 283M
Jul 21, 2018 - 07:20 AM EDT / 2018.07.21 1120 UTC
Wind: Variable at 3 MPH (3 KT):0
Visibility: greater than 7 mile(s):0
Temperature: 78 F (26 C)
Dew Point: 50 F (10 C)
Relative Humidity: 36%
Pressure (altimeter): 29.85 in. Hg (1011 hPa)
ob: EDVK 211120Z VRB03KT CAVOK 26/10 Q1011
cycle: 11

Station Type Date Time Source
EDVK TAF 2011/03/23 07:09 UTC NOAA

TAF COR EDVK 230655Z 2307/2321 30002KT 3500 BR SCT025 PROB30
TEMPO 2307/2309 1400 BCFG
BECMG 2307/2310 01007KT 8000


Example: see airport list